Time;durP1;ratioP1;P1;durP2;ratioP2;P2;SDS_P1;SDS_P2;PMS_P1;PMS_P2;Temp;Humidity;BMP_temperature;BMP_pressure;BME280_temperature;BME280_humidity;BME280_pressure;Samples;Min_cycle;Max_cycle;Signal;HPM_P1;HPM_P2
2022/08/28 00:02:02;;;;;;;7.60;3.27;;;;;;;15.53;77.89;95374.36;1701258;84;21067;-70
2022/08/28 00:04:29;;;;;;;5.50;3.45;;;;;;;15.47;78.00;95373.27;1701279;84;21030;-70
2022/08/28 00:06:56;;;;;;;6.85;3.60;;;;;;;15.43;77.49;95373.87;1701217;84;21046;-70
2022/08/28 00:09:23;;;;;;;5.62;3.42;;;;;;;15.45;77.52;95376.02;1701119;84;21135;-70
2022/08/28 00:11:50;;;;;;;5.60;3.60;;;;;;;15.43;78.88;95377.86;1700892;84;21075;-70
2022/08/28 00:14:20;;;;;;;5.08;3.33;;;;;;;15.45;78.64;95381.80;1702533;83;21015;-70
2022/08/28 00:16:50;;;;;;;5.33;3.15;;;;;;;15.47;78.18;95373.27;1731922;83;21023;-70
2022/08/28 00:19:19;;;;;;;5.53;3.27;;;;;;;15.41;78.51;95379.72;1731974;83;21553;-70
2022/08/28 00:21:47;;;;;;;6.55;3.60;;;;;;;15.37;78.14;95378.09;1732143;83;21054;-70
2022/08/28 00:24:14;;;;;;;5.83;3.40;;;;;;;15.40;78.36;95374.01;1732199;83;21477;-70
2022/08/28 00:29:29;;;;;;;5.10;3.00;;;;;;;15.39;77.53;95369.59;1731831;83;21474;-70
2022/08/28 00:31:56;;;;;;;10.75;3.35;;;;;;;15.35;77.45;95365.36;1732288;83;21564;-70
2022/08/28 00:34:23;;;;;;;8.03;3.67;;;;;;;15.30;77.87;95366.02;1732094;83;21070;-70
2022/08/28 00:36:50;;;;;;;10.38;3.50;;;;;;;15.22;77.96;95366.32;1732289;83;21038;-70
2022/08/28 00:39:16;;;;;;;8.35;3.55;;;;;;;15.25;79.00;95370.65;1732159;83;20999;-70
2022/08/28 00:41:43;;;;;;;7.60;3.58;;;;;;;15.31;78.83;95367.73;1732339;83;21489;-70
2022/08/28 00:44:15;;;;;;;8.43;3.42;;;;;;;15.35;78.58;95365.36;1731777;83;21580;-71
2022/08/28 00:46:45;;;;;;;3.58;2.72;;;;;;;15.35;78.70;95360.04;1732124;82;21062;-70
2022/08/28 00:49:16;;;;;;;8.65;3.55;;;;;;;15.33;78.73;95357.91;1732167;83;21038;-71
2022/08/28 00:54:32;;;;;;;8.18;3.87;;;;;;;15.22;78.74;95354.80;1732016;83;21505;-70
2022/08/28 00:57:05;;;;;;;7.75;4.08;;;;;;;15.30;79.21;95350.92;1732082;83;21012;-70
2022/08/28 00:59:32;;;;;;;9.58;3.30;;;;;;;15.36;79.01;95349.80;1732071;83;21101;-70
2022/08/28 01:02:00;;;;;;;9.40;3.40;;;;;;;15.44;78.61;95346.81;1731857;83;21103;-70
2022/08/28 01:04:31;;;;;;;5.47;3.17;;;;;;;15.46;77.95;95351.61;1732021;83;21039;-70
2022/08/28 01:06:58;;;;;;;7.75;3.98;;;;;;;15.38;78.09;95349.74;1731979;83;21043;-70
2022/08/28 01:09:29;;;;;;;5.67;3.10;;;;;;;15.26;78.26;95350.63;1732216;83;21042;-70
2022/08/28 01:12:01;;;;;;;7.22;3.05;;;;;;;15.23;78.00;95354.75;1705462;83;21107;-71
2022/08/28 01:14:31;;;;;;;7.08;3.30;;;;;;;15.17;78.48;95358.11;1731596;83;20987;-70
2022/08/28 01:16:59;;;;;;;9.23;3.58;;;;;;;15.20;79.09;95360.20;1701195;84;21042;-71
2022/08/28 01:19:43;;;;;;;5.78;2.90;;;;;;;15.28;78.79;95359.41;1701195;84;21078;-70
2022/08/28 01:22:32;;;;;;;4.83;3.10;;;;;;;15.28;77.87;95363.41;1700153;84;21071;-71
2022/08/28 01:25:02;;;;;;;6.97;3.00;;;;;;;15.26;77.79;95363.06;1701563;84;21011;-71
2022/08/28 01:27:28;;;;;;;10.32;3.02;;;;;;;15.21;77.96;95368.56;1701072;84;21071;-70
2022/08/28 01:29:56;;;;;;;7.10;3.30;;;;;;;15.16;78.62;95362.56;1701082;84;21525;-70
2022/08/28 01:32:31;;;;;;;7.35;3.17;;;;;;;15.12;78.58;95361.84;1701213;84;21023;-70
2022/08/28 01:34:58;;;;;;;5.28;2.95;;;;;;;15.15;79.49;95364.36;1701040;84;21015;-71
2022/08/28 01:37:26;;;;;;;5.35;3.77;;;;;;;15.12;78.28;95356.99;1700969;84;21580;-70
2022/08/28 01:39:53;;;;;;;8.90;4.10;;;;;;;15.16;78.37;95362.56;1701510;84;21497;-70
2022/08/28 01:42:20;;;;;;;9.93;3.50;;;;;;;15.24;78.43;95367.09;1701180;84;21019;-70
2022/08/28 01:44:48;;;;;;;6.10;3.40;;;;;;;15.12;78.78;95355.66;1701213;84;21007;-70
2022/08/28 01:47:15;;;;;;;5.95;3.40;;;;;;;15.03;78.35;95357.34;1701348;84;21556;-70
2022/08/28 01:49:42;;;;;;;4.83;3.40;;;;;;;14.99;79.23;95358.38;1701200;84;21003;-70
2022/08/28 01:52:09;;;;;;;10.93;3.27;;;;;;;14.95;78.57;95352.81;1700926;84;20996;-70
2022/08/28 01:54:36;;;;;;;6.15;3.67;;;;;;;14.98;78.88;95357.99;1701062;84;21095;-70
2022/08/28 01:57:03;;;;;;;6.50;3.45;;;;;;;14.92;78.29;95356.45;1700662;84;21602;-71
2022/08/28 01:59:31;;;;;;;8.13;4.08;;;;;;;14.82;78.09;95363.05;1700920;84;21067;-71
2022/08/28 02:01:58;;;;;;;5.62;3.33;;;;;;;14.82;78.52;95356.41;1701263;84;21018;-70
2022/08/28 02:04:25;;;;;;;5.45;3.47;;;;;;;14.78;79.74;95352.13;1701195;84;21063;-71
2022/08/28 02:06:52;;;;;;;10.38;3.87;;;;;;;14.74;79.59;95356.71;1701218;84;21012;-71
2022/08/28 02:09:19;;;;;;;9.20;3.58;;;;;;;14.70;79.79;95355.09;1700970;84;20996;-69
2022/08/28 02:11:45;;;;;;;9.98;3.45;;;;;;;14.69;79.27;95350.24;1701067;84;21512;-70
2022/08/28 02:14:12;;;;;;;13.05;4.25;;;;;;;14.66;79.77;95349.01;1701150;84;20984;-70
2022/08/28 02:16:38;;;;;;;12.58;4.00;;;;;;;14.67;79.93;95350.76;1724721;83;21514;-71
2022/08/28 02:19:05;;;;;;;9.83;3.80;;;;;;;14.69;79.75;95352.01;1732200;83;20996;-71
2022/08/28 02:21:32;;;;;;;7.90;3.75;;;;;;;14.75;79.96;95349.60;1731787;83;21086;-71
2022/08/28 02:23:59;;;;;;;4.55;3.08;;;;;;;14.71;79.57;95346.18;1732209;83;21046;-70
2022/08/28 02:26:27;;;;;;;5.25;3.02;;;;;;;14.66;79.84;95344.17;1732350;83;20995;-70
2022/08/28 02:28:54;;;;;;;5.47;3.33;;;;;;;14.59;79.58;95343.99;1732044;83;21011;-70
2022/08/28 02:31:20;;;;;;;7.40;2.90;;;;;;;14.56;79.72;95344.12;1731781;83;20999;-70
2022/08/28 02:33:47;;;;;;;8.00;3.12;;;;;;;14.56;79.15;95344.12;1732133;83;21552;-70
2022/08/28 02:36:15;;;;;;;10.60;3.80;;;;;;;14.50;80.83;95353.16;1732133;83;21071;-71
2022/08/28 02:38:44;;;;;;;6.47;2.80;;;;;;;14.54;80.89;95354.81;1731860;83;21022;-71
2022/08/28 02:41:11;;;;;;;6.58;3.75;;;;;;;14.58;80.56;95348.45;1732151;83;21018;-70
2022/08/28 02:43:38;;;;;;;6.87;3.17;;;;;;;14.64;80.68;95352.64;1732038;83;20999;-70
2022/08/28 02:46:06;;;;;;;6.62;3.35;;;;;;;14.62;80.28;95351.40;1731851;83;21015;-71
2022/08/28 02:48:36;;;;;;;7.45;3.33;;;;;;;14.63;79.91;95356.23;1732010;83;20999;-70
2022/08/28 02:51:11;;;;;;;7.12;3.47;;;;;;;14.60;79.73;95357.69;1705063;83;21062;-71
2022/08/28 02:53:39;;;;;;;3.85;3.00;;;;;;;14.65;79.62;95358.38;1731890;83;21031;-70
2022/08/28 02:56:07;;;;;;;6.87;3.02;;;;;;;14.64;79.17;95349.99;1732007;83;21031;-70
2022/08/28 02:58:35;;;;;;;5.80;2.98;;;;;;;14.59;79.66;95359.48;1731924;83;21042;-71
2022/08/28 03:01:05;;;;;;;9.33;3.55;;;;;;;14.59;80.90;95357.27;1705225;83;20987;-70
2022/08/28 03:03:33;;;;;;;6.22;3.02;;;;;;;14.61;80.23;95357.61;1731950;83;21066;-71
2022/08/28 03:06:01;;;;;;;6.92;3.52;;;;;;;14.65;79.94;95355.73;1732016;83;21019;-70
2022/08/28 03:08:30;;;;;;;6.30;3.20;;;;;;;14.63;79.99;95353.59;1732202;83;21019;-70
2022/08/28 03:10:59;;;;;;;10.80;3.62;;;;;;;14.66;80.02;95357.44;1732081;83;21059;-70
2022/08/28 03:13:27;;;;;;;5.30;2.75;;;;;;;14.62;79.79;95363.34;1731974;82;21006;-71
2022/08/28 03:15:54;;;;;;;4.80;2.87;;;;;;;14.64;79.44;95354.87;1732020;83;21054;-70
2022/08/28 03:18:22;;;;;;;7.00;3.17;;;;;;;14.54;79.33;95363.22;1731747;83;21039;-70
2022/08/28 03:20:49;;;;;;;6.50;3.08;;;;;;;14.46;79.37;95360.38;1731920;83;21034;-71
2022/08/28 03:23:25;;;;;;;8.25;3.20;;;;;;;14.40;78.83;95359.73;1731768;83;21113;-71
2022/08/28 03:26:03;;;;;;;7.53;3.35;;;;;;;14.35;79.29;95368.33;1731797;83;21027;-71
2022/08/28 03:28:37;;;;;;;5.90;3.70;;;;;;;14.32;79.90;95371.96;1731931;83;21047;-71
2022/08/28 03:31:04;;;;;;;;;;;;;;;14.31;80.24;95381.30;1734083;83;21050;-71
2022/08/28 03:33:32;;;;;;;9.40;3.67;;;;;;;14.31;80.08;95394.09;1732206;82;20120;-70
2022/08/28 03:36:00;;;;;;;6.37;2.92;;;;;;;14.36;80.33;95386.83;1732263;83;21143;-71
2022/08/28 03:38:27;;;;;;;12.43;3.20;;;;;;;14.36;80.64;95398.78;1732138;83;21099;-71
2022/08/28 03:40:54;;;;;;;7.20;2.87;;;;;;;14.31;79.83;95395.42;1732037;83;21062;-71
2022/08/28 03:43:24;;;;;;;7.33;3.30;;;;;;;14.28;80.51;95399.52;1732388;83;21046;-70
2022/08/28 03:46:01;;;;;;;9.05;3.17;;;;;;;14.29;80.38;95398.16;1732081;82;21034;-71
2022/08/28 03:48:32;;;;;;;5.90;3.20;;;;;;;14.26;79.71;95403.58;1732116;83;20975;-70
2022/08/28 03:50:59;;;;;;;4.47;2.90;;;;;;;14.18;80.07;95397.66;1732335;83;21035;-71
2022/08/28 03:53:28;;;;;;;6.35;3.25;;;;;;;14.14;80.31;95392.08;1732235;83;21058;-71
2022/08/28 03:55:56;;;;;;;6.08;2.90;;;;;;;14.18;80.67;95396.33;1732132;83;21376;-71
2022/08/28 03:58:25;;;;;;;5.25;3.10;;;;;;;14.25;80.83;95393.87;1732455;83;21032;-70
2022/08/28 04:00:51;;;;;;;5.28;2.90;;;;;;;14.22;80.62;95400.62;1732159;83;21015;-71
2022/08/28 04:03:18;;;;;;;8.30;3.10;;;;;;;14.22;80.05;95402.41;1732070;83;21011;-71
2022/08/28 04:05:46;;;;;;;9.83;3.17;;;;;;;14.24;79.75;95405.88;1731904;83;21085;-71
2022/08/28 04:08:16;;;;;;;6.37;3.55;;;;;;;14.18;79.98;95401.64;1732270;83;21022;-71
2022/08/28 04:10:44;;;;;;;10.15;3.12;;;;;;;14.24;80.98;95402.77;1732195;83;21505;-71
2022/08/28 04:13:12;;;;;;;8.23;3.37;;;;;;;14.34;80.54;95402.41;1732134;83;21043;-71
2022/08/28 04:15:40;;;;;;;7.17;3.47;;;;;;;14.39;80.27;95405.33;1727301;83;21003;-71
2022/08/28 04:18:09;;;;;;;7.00;2.95;;;;;;;14.47;80.24;95408.56;1701236;84;21042;-71
2022/08/28 04:20:37;;;;;;;6.10;3.10;;;;;;;14.57;80.15;95411.77;1701266;84;21055;-71
2022/08/28 04:23:06;;;;;;;6.45;3.05;;;;;;;14.67;80.15;95400.35;1679102;84;21536;-71
2022/08/28 04:25:33;;;;;;;7.47;3.17;;;;;;;14.69;79.95;95405.12;1701385;84;21461;-71
2022/08/28 04:28:00;;;;;;;8.60;3.45;;;;;;;14.69;80.10;95409.10;1701110;84;21026;-70
2022/08/28 04:30:26;;;;;;;6.97;3.40;;;;;;;14.66;79.44;95408.75;1700847;84;21027;-71
2022/08/28 04:32:53;;;;;;;5.40;3.20;;;;;;;14.66;79.56;95405.24;1701244;84;21027;-70
2022/08/28 04:35:20;;;;;;;6.10;3.33;;;;;;;14.69;80.18;95412.65;1701472;84;20996;-70
2022/08/28 04:37:46;;;;;;;5.80;3.65;;;;;;;14.75;80.24;95398.73;1700972;84;21051;-71
2022/08/28 04:40:14;;;;;;;6.60;2.75;;;;;;;14.78;80.00;95401.27;1701233;84;20991;-71
2022/08/28 04:42:43;;;;;;;4.53;2.90;;;;;;;14.86;79.70;95404.02;1701317;84;21027;-70
2022/08/28 04:45:10;;;;;;;6.17;3.22;;;;;;;14.88;80.27;95401.31;1700765;84;21022;-71
2022/08/28 04:47:37;;;;;;;6.05;3.65;;;;;;;15.06;80.47;95397.08;1701305;84;21520;-70
2022/08/28 04:50:07;;;;;;;7.03;3.67;;;;;;;15.17;80.02;95403.29;1701416;84;21014;-71
2022/08/28 04:52:34;;;;;;;10.25;3.50;;;;;;;15.32;79.82;95404.00;1701208;84;20968;-71
2022/08/28 04:55:01;;;;;;;6.47;3.50;;;;;;;15.45;79.76;95403.93;1701000;84;21067;-70
2022/08/28 04:57:27;;;;;;;7.28;3.60;;;;;;;15.59;79.24;95404.68;1701332;84;21012;-70
2022/08/28 04:59:54;;;;;;;9.28;3.72;;;;;;;15.69;78.75;95401.18;1700960;84;21035;-71
2022/08/28 05:02:21;;;;;;;7.45;4.10;;;;;;;15.76;78.63;95400.89;1701228;84;20988;-71
2022/08/28 05:04:48;;;;;;;9.68;3.72;;;;;;;15.87;78.45;95409.73;1701325;84;20983;-70
2022/08/28 05:07:14;;;;;;;6.78;4.12;;;;;;;15.94;78.04;95411.22;1679520;84;21055;-70
2022/08/28 05:09:41;;;;;;;8.95;3.80;;;;;;;16.04;77.87;95408.17;1701303;84;21007;-70
2022/08/28 05:12:11;;;;;;;7.40;4.40;;;;;;;16.06;78.57;95406.31;1701207;84;20982;-70
2022/08/28 05:14:36;;;;;;;8.05;4.40;;;;;;;16.09;78.36;95412.83;1701234;84;21087;-71
2022/08/28 05:17:03;;;;;;;8.75;4.28;;;;;;;16.12;78.24;95407.37;1701122;83;21048;-71
2022/08/28 05:19:32;;;;;;;5.78;3.10;;;;;;;16.24;78.17;95406.84;1701021;83;20996;-71
2022/08/28 05:21:59;;;;;;;4.65;3.02;;;;;;;16.32;77.73;95408.69;1701206;84;21032;-71
2022/08/28 05:24:25;;;;;;;8.45;3.90;;;;;;;16.36;78.12;95407.63;1701073;84;21110;-70
2022/08/28 05:26:52;;;;;;;6.15;3.58;;;;;;;16.54;79.95;95413.94;1700987;83;21036;-71
2022/08/28 05:29:19;;;;;;;9.75;4.08;;;;;;;16.64;79.62;95404.59;1701356;83;21040;-70
2022/08/28 05:31:46;;;;;;;7.80;4.15;;;;;;;16.64;79.62;95404.59;1701189;84;21234;-71
2022/08/28 05:34:14;;;;;;;7.20;4.40;;;;;;;16.81;79.44;95409.67;1700991;84;21012;-70
2022/08/28 05:36:41;;;;;;;6.58;4.33;;;;;;;16.92;78.59;95406.50;1701673;84;21052;-71
2022/08/28 05:39:10;;;;;;;10.58;4.20;;;;;;;17.06;78.54;95412.92;1701075;84;21115;-70
2022/08/28 05:41:42;;;;;;;6.15;3.77;;;;;;;17.25;77.83;95408.89;1701112;84;21031;-71
2022/08/28 05:44:13;;;;;;;6.90;3.60;;;;;;;17.43;77.56;95411.14;1701255;84;21027;-70
2022/08/28 05:46:42;;;;;;;6.80;3.72;;;;;;;17.60;76.49;95416.14;1701236;84;21019;-70
2022/08/28 05:49:11;;;;;;;8.65;3.85;;;;;;;17.73;76.26;95418.12;1701018;84;21059;-71
2022/08/28 05:51:41;;;;;;;7.95;4.12;;;;;;;17.88;75.83;95414.33;1701192;84;21497;-71
2022/08/28 05:54:09;;;;;;;4.97;3.60;;;;;;;18.01;75.17;95415.91;1701055;84;21557;-70
2022/08/28 05:56:39;;;;;;;8.53;3.95;;;;;;;18.12;75.03;95407.76;1701178;84;21346;-70
2022/08/28 05:59:07;;;;;;;8.90;3.90;;;;;;;18.28;74.16;95409.63;1701739;84;21812;-71
2022/08/28 06:01:45;;;;;;;5.92;4.00;;;;;;;18.43;73.91;95409.31;1701218;84;21470;-71
2022/08/28 06:04:16;;;;;;;10.58;4.28;;;;;;;18.59;73.75;95405.73;1700996;84;21039;-71
2022/08/28 06:06:43;;;;;;;5.40;3.85;;;;;;;18.73;73.54;95401.00;1701247;84;21434;-71
2022/08/28 06:09:15;;;;;;;8.20;4.85;;;;;;;18.86;73.43;95403.91;1700924;84;21083;-71
2022/08/28 06:11:43;;;;;;;6.05;4.37;;;;;;;18.99;73.47;95400.09;1701345;84;21011;-71
2022/08/28 06:14:12;;;;;;;7.55;4.03;;;;;;;19.14;73.35;95398.38;1701165;84;21035;-71
2022/08/28 06:16:42;;;;;;;9.43;4.10;;;;;;;19.26;72.77;95397.70;1700708;83;21078;-69
2022/08/28 06:19:11;;;;;;;8.15;4.30;;;;;;;19.37;71.57;95404.63;1701190;84;21027;-71
2022/08/28 06:21:42;;;;;;;9.28;4.00;;;;;;;19.43;71.52;95403.45;1701191;84;21118;-71
2022/08/28 06:24:11;;;;;;;9.65;4.08;;;;;;;19.54;71.47;95404.17;1701135;84;21091;-71
2022/08/28 06:26:37;;;;;;;6.62;3.95;;;;;;;19.65;71.42;95405.30;1701280;84;21497;-70
2022/08/28 06:29:09;;;;;;;6.55;4.10;;;;;;;19.74;70.74;95405.26;1700733;84;21035;-70
2022/08/28 06:31:37;;;;;;;4.62;3.80;;;;;;;19.84;70.63;95402.44;1701037;84;21054;-71
2022/08/28 06:34:04;;;;;;;7.25;4.03;;;;;;;19.93;69.81;95398.34;1701196;84;21474;-71
2022/08/28 06:36:34;;;;;;;7.60;4.10;;;;;;;20.00;69.91;95397.03;1701175;84;20972;-71
2022/08/28 06:39:04;;;;;;;5.62;3.77;;;;;;;20.14;70.10;95401.59;1679322;84;21027;-71
2022/08/28 06:41:33;;;;;;;7.15;4.03;;;;;;;20.29;70.01;95401.16;1701391;84;21035;-71
2022/08/28 06:44:00;;;;;;;6.35;3.98;;;;;;;20.40;69.50;95400.02;1700959;84;21067;-71
2022/08/28 06:46:29;;;;;;;8.60;3.95;;;;;;;20.50;69.48;95398.98;1701022;84;21031;-70
2022/08/28 06:48:55;;;;;;;7.33;4.83;;;;;;;20.63;69.40;95391.09;1701191;84;21083;-71
2022/08/28 06:51:22;;;;;;;9.08;3.95;;;;;;;20.74;68.78;95389.48;1700952;84;21466;-71
2022/08/28 06:53:49;;;;;;;6.30;3.95;;;;;;;20.88;68.33;95395.80;1701029;84;21106;-71
2022/08/28 06:56:19;;;;;;;7.03;4.60;;;;;;;21.00;67.93;95392.35;1701278;84;21461;-71
2022/08/28 06:58:48;;;;;;;10.40;4.30;;;;;;;21.13;68.16;95393.29;1700919;84;21055;-71
2022/08/28 07:01:24;;;;;;;11.30;4.03;;;;;;;21.28;67.96;95396.82;1701342;84;21466;-70
2022/08/28 07:03:53;;;;;;;9.78;4.00;;;;;;;21.44;67.42;95401.23;1701192;84;21059;-71
2022/08/28 07:06:22;;;;;;;10.78;4.50;;;;;;;21.60;67.34;95406.00;1701177;84;21003;-71
2022/08/28 07:08:50;;;;;;;8.50;4.12;;;;;;;21.76;66.71;95398.66;1701199;84;21035;-71
2022/08/28 07:11:20;;;;;;;7.12;3.98;;;;;;;21.93;66.74;95395.34;1701005;84;20984;-70
2022/08/28 07:13:48;;;;;;;7.35;3.98;;;;;;;22.10;66.53;95393.73;1701201;84;21031;-71
2022/08/28 07:16:17;;;;;;;11.18;4.25;;;;;;;22.28;66.25;95395.69;1701887;83;21086;-70
2022/08/28 07:18:45;;;;;;;8.05;3.80;;;;;;;22.44;66.02;95390.97;1731935;83;21026;-71
2022/08/28 07:21:15;;;;;;;6.30;3.52;;;;;;;22.60;65.49;95394.83;1732071;83;20971;-70
2022/08/28 07:23:43;;;;;;;5.72;4.03;;;;;;;22.72;64.24;95384.17;1732061;83;21026;-71
2022/08/28 07:26:14;;;;;;;7.10;3.90;;;;;;;22.84;61.93;95381.48;1732062;83;20998;-71
2022/08/28 07:28:41;;;;;;;7.22;3.90;;;;;;;22.95;62.89;95383.40;1732065;83;21090;-71
2022/08/28 07:31:13;;;;;;;7.00;3.77;;;;;;;23.08;62.31;95381.61;1732161;83;21011;-70
2022/08/28 07:33:41;;;;;;;9.10;3.62;;;;;;;23.21;62.25;95384.28;1731983;83;21086;-71
2022/08/28 07:36:15;;;;;;;6.72;3.83;;;;;;;23.35;61.84;95382.41;1732061;83;20994;-71
2022/08/28 07:38:42;;;;;;;12.37;3.50;;;;;;;23.52;62.00;95384.73;1732037;83;21082;-71
2022/08/28 07:41:20;;;;;;;6.85;3.65;;;;;;;23.68;61.40;95381.27;1731928;83;20963;-71
2022/08/28 07:46:33;;;;;;;4.20;3.42;;;;;;;23.99;61.35;95387.13;1731935;83;21019;-70
2022/08/28 07:49:00;;;;;;;13.70;4.53;;;;;;;24.16;61.64;95384.49;1732105;83;21027;-70
2022/08/28 07:51:27;;;;;;;6.58;3.83;;;;;;;24.37;61.87;95387.41;1732087;83;21010;-71
2022/08/28 07:53:58;;;;;;;6.72;3.80;;;;;;;24.55;61.20;95389.21;1731774;83;21529;-70
2022/08/28 07:56:28;;;;;;;9.08;4.40;;;;;;;24.68;61.31;95377.83;1732100;83;21559;-71
2022/08/28 07:59:00;;;;;;;6.17;3.92;;;;;;;24.87;61.08;95381.77;1731995;83;21074;-70
2022/08/28 08:01:29;;;;;;;5.70;3.67;;;;;;;24.97;58.84;95380.95;1731614;83;21034;-71
2022/08/28 08:03:56;;;;;;;12.35;3.75;;;;;;;25.13;58.94;95381.08;1731985;83;21003;-71
2022/08/28 08:06:27;;;;;;;8.65;3.35;;;;;;;25.29;59.29;95376.68;1731965;83;20987;-71
2022/08/28 08:08:54;;;;;;;11.33;3.70;;;;;;;25.46;55.15;95381.58;1732048;83;21019;-70
2022/08/28 08:11:21;;;;;;;6.53;3.92;;;;;;;25.60;56.13;95377.27;1732019;82;21022;-70
2022/08/28 08:13:48;;;;;;;6.10;3.52;;;;;;;25.77;56.36;95385.33;1731891;83;21027;-71
2022/08/28 08:16:22;;;;;;;10.05;3.30;;;;;;;25.93;55.40;95375.97;1731710;83;21101;-70
2022/08/28 08:18:52;;;;;;;6.03;3.10;;;;;;;26.08;55.43;95384.16;1701592;83;21055;-70
2022/08/28 08:21:20;;;;;;;6.65;2.75;;;;;;;26.23;53.68;95384.25;1701159;84;21027;-70
2022/08/28 08:23:48;;;;;;;6.70;2.70;;;;;;;26.36;52.61;95385.89;1701371;84;21078;-71
2022/08/28 08:26:19;;;;;;;8.70;3.22;;;;;;;26.42;50.09;95382.69;1701017;84;21031;-70
2022/08/28 08:28:49;;;;;;;5.33;2.60;;;;;;;26.44;50.53;95390.18;1679317;84;21039;-71
2022/08/28 08:31:23;;;;;;;7.60;2.80;;;;;;;26.52;49.39;95387.20;1701319;84;21000;-70
2022/08/28 08:33:54;;;;;;;5.37;2.85;;;;;;;26.69;47.92;95377.64;1700907;84;21023;-71
2022/08/28 08:36:24;;;;;;;5.47;2.80;;;;;;;26.84;48.50;95380.88;1701188;84;21014;-71
2022/08/28 08:38:52;;;;;;;6.55;2.80;;;;;;;27.00;47.83;95380.89;1701286;84;21051;-71
2022/08/28 08:41:30;;;;;;;3.15;2.58;;;;;;;27.14;44.98;95379.17;1701407;84;21031;-70
2022/08/28 08:44:02;;;;;;;6.30;2.70;;;;;;;27.28;43.44;95380.20;1701140;84;21026;-70
2022/08/28 08:46:45;;;;;;;5.85;2.65;;;;;;;27.44;44.49;95381.55;1701518;84;21034;-71
2022/08/28 08:49:24;;;;;;;6.75;3.02;;;;;;;27.57;44.85;95384.39;1701409;84;21034;-71
2022/08/28 08:52:02;;;;;;;5.97;2.90;;;;;;;27.73;44.64;95387.08;1701334;84;20987;-71
2022/08/28 08:54:30;;;;;;;8.50;2.98;;;;;;;27.86;43.78;95388.21;1697611;84;21549;-71
2022/08/28 08:56:59;;;;;;;5.67;2.62;;;;;;;27.99;43.68;95392.36;1700947;84;21031;-71
2022/08/28 08:59:30;;;;;;;5.75;3.00;;;;;;;28.12;43.81;95390.73;1701598;84;21055;-70
2022/08/28 09:02:21;;;;;;;8.65;2.90;;;;;;;28.25;43.07;95391.34;1679890;84;21018;-70
2022/08/28 09:04:56;;;;;;;7.28;2.80;;;;;;;28.36;42.36;95388.98;1701049;84;21087;-70
2022/08/28 09:07:28;;;;;;;7.75;2.80;;;;;;;28.48;41.52;95391.95;1700293;84;21022;-70
2022/08/28 09:09:57;;;;;;;11.53;3.00;;;;;;;28.61;41.70;95386.73;1701570;84;21004;-70
2022/08/28 09:12:28;;;;;;;5.17;2.60;;;;;;;28.74;39.67;95394.58;1701014;84;21150;-71
2022/08/28 09:15:10;;;;;;;6.33;2.80;;;;;;;28.82;40.19;95390.13;1701509;84;21054;-70
2022/08/28 09:17:47;;;;;;;9.68;3.05;;;;;;;28.92;39.77;95392.83;1711671;83;21078;-70
2022/08/28 09:20:19;;;;;;;10.23;3.10;;;;;;;29.07;39.50;95390.54;1730629;83;21054;-70
2022/08/28 09:22:49;;;;;;;9.38;3.00;;;;;;;29.18;39.20;95399.02;1732380;83;21043;-70
2022/08/28 09:25:56;;;;;;;12.80;3.62;;;;;;;29.31;38.35;95393.62;1732000;83;21023;-70
2022/08/28 09:28:39;;;;;;;8.43;3.20;;;;;;;29.45;38.34;95391.42;1732096;83;21028;-70
2022/08/28 09:31:16;;;;;;;7.20;3.12;;;;;;;29.58;37.81;95393.28;1705227;83;21055;-70
2022/08/28 09:33:47;;;;;;;6.37;3.20;;;;;;;29.66;34.21;95389.37;1732051;83;21034;-70
2022/08/28 09:36:35;;;;;;;9.15;3.27;;;;;;;29.77;35.78;95392.38;1732029;83;21010;-70
2022/08/28 09:39:27;;;;;;;8.15;3.40;;;;;;;29.89;36.32;95386.24;1731822;83;21106;-70
2022/08/28 09:45:19;;;;;;;10.18;2.80;;;;;;;30.06;35.02;95389.98;1731937;83;21557;-70
2022/08/28 09:47:59;;;;;;;8.35;3.25;;;;;;;30.15;33.79;95387.72;1732105;83;21011;-70
2022/08/28 09:50:36;;;;;;;8.85;3.17;;;;;;;30.22;33.17;95389.33;1732256;83;21114;-70
2022/08/28 09:53:16;;;;;;;7.05;3.45;;;;;;;30.27;33.83;95388.39;1732024;83;20967;-70
2022/08/28 09:55:54;;;;;;;8.43;3.20;;;;;;;30.36;33.83;95391.52;1731984;83;21146;-70
2022/08/28 09:58:26;;;;;;;7.58;3.33;;;;;;;30.47;33.69;95389.09;1732197;82;21019;-70
2022/08/28 10:00:58;;;;;;;7.00;3.27;;;;;;;30.66;33.40;95393.51;1732001;83;21007;-70
2022/08/28 10:03:36;;;;;;;7.72;3.58;;;;;;;30.76;33.32;95393.77;1732078;82;21525;-70
2022/08/28 10:06:20;;;;;;;8.60;3.47;;;;;;;30.84;33.14;95397.09;1732380;83;21473;-71
2022/08/28 10:09:27;;;;;;;7.37;3.05;;;;;;;30.97;32.28;95385.30;1731054;83;21050;-70
2022/08/28 10:12:11;;;;;;;6.85;3.10;;;;;;;31.09;32.86;95389.11;1732057;82;21039;-70
2022/08/28 10:15:01;;;;;;;7.60;3.35;;;;;;;31.18;31.52;95390.89;1731972;83;21088;-70
2022/08/28 10:17:43;;;;;;;9.98;3.02;;;;;;;31.25;31.04;95387.36;1731809;83;21516;-70
2022/08/28 10:20:24;;;;;;;6.22;2.90;;;;;;;31.35;31.99;95389.98;1732525;82;21063;-70
2022/08/28 10:23:20;;;;;;;9.83;3.55;;;;;;;31.49;31.04;95383.08;1729022;83;20999;-70
2022/08/28 10:26:10;;;;;;;9.40;3.35;;;;;;;31.60;31.58;95383.30;1732179;83;21054;-70
2022/08/28 10:29:14;;;;;;;8.53;3.15;;;;;;;31.72;30.27;95384.72;1731085;83;21045;-70
2022/08/28 10:31:52;;;;;;;10.30;3.30;;;;;;;31.86;30.72;95383.27;1731851;83;21095;-70
2022/08/28 10:34:40;;;;;;;6.55;3.30;;;;;;;32.07;31.66;95381.48;1731859;83;21157;-71
2022/08/28 10:37:44;;;;;;;8.23;3.02;;;;;;;32.20;31.24;95382.36;1731808;83;21563;-71
2022/08/28 10:40:22;;;;;;;4.40;3.25;;;;;;;32.33;31.67;95378.62;1698204;83;21046;-70
2022/08/28 10:43:13;;;;;;;10.40;3.35;;;;;;;32.55;31.90;95378.02;1731935;82;21027;-70
2022/08/28 10:45:43;;;;;;;9.68;3.17;;;;;;;32.59;29.67;95381.28;1725638;83;21003;-70
2022/08/28 10:48:30;;;;;;;6.67;2.85;;;;;;;32.63;28.70;95375.80;1731869;83;21039;-70
2022/08/28 10:51:14;;;;;;;7.92;3.25;;;;;;;32.79;30.13;95372.77;1732160;82;21015;-70
2022/08/28 10:53:47;;;;;;;11.63;3.37;;;;;;;32.98;29.21;95366.41;1731961;82;21075;-70
2022/08/28 10:56:24;;;;;;;6.17;2.80;;;;;;;33.03;29.60;95373.28;1732176;83;21557;-70
2022/08/28 10:58:56;;;;;;;7.95;2.80;;;;;;;33.11;27.94;95367.30;1731817;83;21062;-70
2022/08/28 11:01:32;;;;;;;4.97;2.90;;;;;;;33.13;27.61;95370.69;1732346;82;21042;-70
2022/08/28 11:04:04;;;;;;;8.85;3.22;;;;;;;33.08;28.03;95373.61;1729278;83;21083;-70
2022/08/28 11:06:45;;;;;;;7.58;3.08;;;;;;;33.09;27.49;95379.44;1732399;83;20991;-70
2022/08/28 11:09:37;;;;;;;10.78;3.20;;;;;;;33.07;27.26;95375.50;1732456;82;21023;-70
2022/08/28 11:12:22;;;;;;;5.75;3.02;;;;;;;33.14;27.10;95376.52;1732467;82;21516;-71
2022/08/28 11:14:50;;;;;;;11.63;3.60;;;;;;;33.06;27.41;95376.50;1730768;83;21031;-70
2022/08/28 11:17:29;;;;;;;9.65;2.95;;;;;;;33.25;28.06;95375.30;1731859;83;21006;-70
2022/08/28 11:20:23;;;;;;;9.13;3.12;;;;;;;33.48;28.55;95380.03;1740297;82;21010;-70
2022/08/28 11:23:28;;;;;;;8.20;3.27;;;;;;;33.55;27.78;95373.72;1740498;82;20995;-69
2022/08/28 11:25:58;;;;;;;8.58;3.45;;;;;;;33.29;28.36;95378.52;1739985;82;21030;-70
2022/08/28 11:28:46;;;;;;;9.00;3.67;;;;;;;33.07;28.21;95384.22;1740501;82;21034;-70
2022/08/28 11:31:18;;;;;;;7.03;3.05;;;;;;;32.74;28.93;95387.77;1771381;81;21460;-70
2022/08/28 11:33:51;;;;;;;8.00;4.05;;;;;;;32.19;34.21;95394.31;1771625;81;21017;-70
2022/08/28 11:36:28;;;;;;;14.45;3.67;;;;;;;31.58;37.48;95391.66;1771502;81;20978;-70
2022/08/28 11:39:03;;;;;;;10.05;4.20;;;;;;;30.97;33.44;95401.64;1771170;81;21069;-70
2022/08/28 11:41:37;;;;;;;8.70;3.90;;;;;;;30.31;34.33;95402.02;1771493;81;21483;-70
2022/08/28 11:44:13;;;;;;;8.68;3.17;;;;;;;29.85;34.93;95412.87;1771175;81;21100;-70
2022/08/28 11:46:49;;;;;;;7.15;4.03;;;;;;;29.46;34.46;95408.95;1771786;81;20973;-70
2022/08/28 11:49:27;;;;;;;7.72;3.35;;;;;;;29.13;35.84;95398.09;1771302;81;20994;-70
2022/08/28 11:52:19;;;;;;;6.42;3.30;;;;;;;28.89;36.01;95399.91;1771339;81;21022;-70
2022/08/28 11:55:12;;;;;;;11.57;4.05;;;;;;;28.71;36.92;95404.37;1768757;81;21002;-70
2022/08/28 11:57:50;;;;;;;7.87;4.22;;;;;;;28.46;37.83;95408.02;1771766;81;21037;-70
2022/08/28 12:00:47;;;;;;;7.10;3.80;;;;;;;28.32;37.74;95406.53;1771332;81;21021;-70
2022/08/28 12:03:31;;;;;;;8.18;3.95;;;;;;;28.19;38.41;95408.67;1771565;81;20949;-70
2022/08/28 12:05:59;;;;;;;9.73;4.30;;;;;;;27.86;38.18;95407.19;1761545;81;21037;-69